Flight Track Log - Related Links

Times and Time Zones

All times are in EDT time to prevent confusion due to time zone crossing. See the N680AN flight status page for this flight to view local times or setup timezone preferences in your user account.

Time Position Orientation Groundspeed Altitude Reporting Facility
EDT Latitude Longitude Course Direction KTS MPH feet Rate Location/Type
Thu 09:40:53 PM 25.7983 -80.2722 13° North 161 185 800  Level Miami Center
Thu 09:41:54 PM 25.8058 -80.2147 82° East 223 257 2,900 2,156 Climbing Miami Center
Thu 09:43:00 PM 26.0984 -80.1508 24° Northeast  Level FlightAware Approximate
Thu 09:43:01 PM 25.8181 -80.1297 81° East 272 313 5,400  Level Miami Center
Thu 09:44:00 PM 26.2020 -80.1025 20° North  Level FlightAware Approximate
Thu 09:44:02 PM 25.8758 -80.0781 39° Northeast 302 348 7,000  Level Miami Center
Thu 09:44:41 PM 25.9272 -80.1094 331° Northwest 302 348 8,100 2,364 Climbing Miami Center
Thu 09:45:00 PM 26.3078 -80.0602 20° North  Level FlightAware Approximate
Thu 09:45:41 PM 25.9906 -80.1736 318° Northwest 308 354 10,900  Level Miami Center
Thu 09:46:00 PM 26.4066 -80.0109 13° North  Level FlightAware Approximate
Thu 09:46:41 PM 26.0497 -80.2331 318° Northwest 308 354 13,500  Level Miami Center
Thu 09:47:41 PM 26.1342 -80.2886 329° Northwest 322 371 15,000 1,900 Climbing Miami Center
Thu 09:48:41 PM 26.2419 -80.3197 345° North 356 410 17,300 2,150 Climbing Miami Center
Thu 09:49:41 PM 26.3500 -80.3483 347° North 386 444 19,300 2,033 Climbing Miami Center
Thu 09:50:42 PM 26.4642 -80.3794 346° North 416 479 21,400 1,950 Climbing Miami Center
Thu 09:51:41 PM 26.5800 -80.4156 344° North 416 479 23,200 1,721 Climbing Miami Center
Thu 09:52:44 PM 26.6983 -80.4517 345° North 423 487 24,900 1,463 Climbing Miami Center
Thu 09:53:44 PM 26.8183 -80.4903 344° North 437 503 26,200 1,311 Climbing Miami Center
Thu 09:54:43 PM 26.9428 -80.5289 345° North 449 517 27,500 1,400 Climbing Miami Center
Thu 09:55:44 PM 27.0694 -80.5586 348° North 455 524 29,000 1,424 Climbing Miami Center
Thu 09:56:41 PM 27.2028 -80.5722 355° North 465 535 30,300 1,300 Climbing Miami Center
Thu 09:57:44 PM 27.3358 -80.5858 355° North 471 542 31,600 1,450 Climbing Miami Center
Thu 09:58:41 PM 27.4600 -80.5525 13° North 466 536 33,200 1,627 Climbing Miami Center
Thu 09:59:42 PM 27.5786 -80.4814 28° Northeast 460 529 34,800 1,525 Climbing Miami Center
Thu 10:00:43 PM 27.6931 -80.4122 28° Northeast 460 529 36,300 1,091 Climbing Miami Center
Thu 10:01:43 PM 27.8056 -80.3428 29° Northeast 460 529 37,000 347 Climbing Miami Center
Thu 10:02:44 PM 27.9217 -80.2806 25° Northeast 455 524 37,000  Level Miami Center
Thu 10:03:44 PM 28.0256 -80.2203 27° Northeast 455 524 37,000  Level Miami Center
Thu 10:04:44 PM 28.1375 -80.1531 28° Northeast 449 517 37,000  Level Miami Center
Thu 10:05:43 PM 28.2583 -80.0789 28° Northeast 449 517 37,000  Level Miami Center
Thu 10:06:44 PM 28.3725 -80.0136 27° Northeast 449 517 37,000  Level Miami Center
Thu 10:07:43 PM 28.4803 -79.9481 28° Northeast 449 517 37,000  Level Miami Center
Thu 10:08:44 PM 28.5944 -79.8756 29° Northeast 449 517 37,000  Level Miami Center
Thu 10:09:42 PM 28.7044 -79.8100 28° Northeast 444 511 37,000  Level Miami Center
Thu 10:10:43 PM 28.8122 -79.7417 29° Northeast 444 511 37,000  Level Miami Center
Thu 10:11:43 PM 28.9261 -79.6736 28° Northeast 439 505 37,000  Level Miami Center
Thu 10:12:43 PM 29.0339 -79.6075 28° Northeast 439 505 37,000  Level Miami Center
Thu 10:13:44 PM 29.1517 -79.5511 23° Northeast 439 505 37,000  Level Miami Center
Thu 10:14:44 PM 29.2614 -79.4967 23° Northeast 439 505 37,000  Level Miami Center
Thu 10:15:43 PM 29.3914 -79.4617 13° North 439 505 37,000  Level Miami Center
Thu 10:17:00 PM 29.5346 -79.3937 22° Northeast  Level FlightAware Approximate
Thu 10:17:44 PM 29.6019 -79.3475 22° Northeast 429 494 37,000  Level Miami Center
Thu 10:18:43 PM 29.7172 -79.3022 19° North 429 494 37,000  Level Miami Center
Thu 10:20:55 PM 29.9583 -79.1961 21° North 439 505 37,000  Level Jacksonville Center
Thu 10:21:55 PM 30.0717 -79.1508 19° North 434 499 37,000  Level Jacksonville Center
Thu 10:22:55 PM 30.1850 -79.1008 21° North 434 499 37,000  Level Jacksonville Center
Thu 10:23:55 PM 30.2964 -79.0581 18° North 422 486 37,000  Level Jacksonville Center
Thu 10:24:55 PM 30.4119 -79.0125 19° North 422 486 37,000  Level Jacksonville Center
Thu 10:25:55 PM 30.5256 -78.9669 19° North 422 486 37,000  Level Jacksonville Center
Thu 10:26:55 PM 30.6431 -78.9208 19° North 429 494 37,000  Level Jacksonville Center
Thu 10:27:55 PM 30.7606 -78.8750 19° North 431 496 37,000  Level Jacksonville Center
Thu 10:28:55 PM 30.8758 -78.8264 20° North 436 502 37,000  Level Jacksonville Center
Thu 10:29:55 PM 30.9869 -78.7781 20° North 436 502 37,000  Level Jacksonville Center
Thu 10:30:55 PM 31.1108 -78.7361 16° North 441 507 37,000  Level Jacksonville Center
Thu 10:31:55 PM 31.2264 -78.6922 18° North 436 502 37,000  Level Jacksonville Center
Thu 10:32:55 PM 31.3497 -78.6358 21° North 436 502 37,000  Level Jacksonville Center
Thu 10:33:55 PM 31.4653 -78.5914 18° North 436 502 37,000  Level Jacksonville Center
Thu 10:34:55 PM 31.5825 -78.5444 19° North 436 502 37,000  Level Jacksonville Center
Thu 10:35:55 PM 31.7058 -78.4900 21° North 441 507 37,000  Level Jacksonville Center
Thu 10:36:55 PM 31.8253 -78.4428 19° North 448 516 37,000  Level Jacksonville Center
Thu 10:37:55 PM 31.9425 -78.3931 20° North 448 516 37,000  Level Jacksonville Center
Thu 10:39:00 PM 32.0658 -78.3410 20° North  Level FlightAware Approximate
Thu 10:39:55 PM 32.1811 -78.2931 20° North 443 510 37,000  Level Jacksonville Center
Thu 10:40:55 PM 32.2983 -78.2453 19° North 436 502 37,000  Level Jacksonville Center
Thu 10:41:55 PM 32.4133 -78.1928 21° North 441 507 37,000  Level Jacksonville Center
Thu 10:42:55 PM 32.5306 -78.1472 18° North 441 507 37,000  Level Jacksonville Center
Thu 10:43:55 PM 32.6475 -78.0967 20° North 441 507 37,000  Level Jacksonville Center
Thu 10:44:55 PM 32.7625 -78.0436 21° North 436 502 37,000  Level Jacksonville Center
Thu 10:45:55 PM 32.8775 -77.9978 19° North 436 502 37,000  Level Jacksonville Center
Thu 10:46:55 PM 32.9944 -77.9444 21° North 436 502 37,000  Level Jacksonville Center
Thu 10:47:55 PM 33.1094 -77.8983 19° North 436 502 37,000  Level Jacksonville Center
Thu 10:49:48 PM 33.3378 -77.8014 20° North 425 489 37,000  Level Washington Center
Thu 10:50:49 PM 33.4556 -77.7522 19° North 425 489 37,000  Level Washington Center
Thu 10:51:49 PM 33.5711 -77.7003 21° North 425 489 37,000  Level Washington Center
Thu 10:52:48 PM 33.6869 -77.6508 20° North 435 501 37,000  Level Washington Center
Thu 10:53:49 PM 33.8067 -77.6014 19° North 435 501 37,000  Level Washington Center
Thu 10:54:47 PM 33.9222 -77.5489 21° North 435 501 37,000  Level Washington Center
Thu 10:55:48 PM 34.0397 -77.4992 19° North 440 506 37,000  Level Washington Center
Thu 10:56:48 PM 34.1469 -77.4564 18° North 445 512 37,000  Level Washington Center
Thu 10:57:47 PM 34.2644 -77.4064 19° North 445 512 37,000  Level Washington Center
Thu 10:58:47 PM 34.3800 -77.3561 20° North 445 512 37,000  Level Washington Center
Thu 10:59:48 PM 34.4975 -77.3056 20° North 450 518 37,000  Level Washington Center
Thu 11:00:48 PM 34.6131 -77.2500 22° Northeast 450 518 37,000  Level Washington Center
Thu 11:01:49 PM 34.7347 -77.2019 18° North 450 518 37,000  Level Washington Center
Thu 11:02:47 PM 34.8586 -77.1436 21° North 445 512 37,000  Level Washington Center
Thu 11:03:48 PM 34.9656 -77.0975 19° North 445 512 37,000  Level Washington Center
Thu 11:04:48 PM 35.0811 -77.0439 21° North 445 512 37,000  Level Washington Center
Thu 11:05:49 PM 35.2069 -76.9850 21° North 445 512 37,000  Level Washington Center
Thu 11:06:50 PM 35.3244 -76.9336 20° North 445 512 37,000  Level Washington Center
Thu 11:07:48 PM 35.4375 -76.8844 20° North 439 505 37,000  Level Washington Center
Thu 11:08:49 PM 35.5592 -76.8303 20° North 439 505 37,000  Level Washington Center
Thu 11:09:48 PM 35.6578 -76.7808 22° Northeast 439 505 37,000  Level Washington Center
Thu 11:10:49 PM 35.7750 -76.7289 20° North 439 505 37,000  Level Washington Center
Thu 11:11:48 PM 35.8925 -76.6767 20° North 439 505 37,000  Level Washington Center
Thu 11:12:47 PM 36.0075 -76.6242 20° North 439 505 37,000  Level Washington Center
Thu 11:13:47 PM 36.1250 -76.5717 20° North 439 505 37,000  Level Washington Center
Thu 11:14:48 PM 36.2400 -76.5167 21° North 439 505 37,000  Level Washington Center
Thu 11:15:48 PM 36.3572 -76.4639 20° North 439 505 37,000  Level Washington Center
Thu 11:16:47 PM 36.4703 -76.4108 21° North 439 505 37,000  Level Washington Center
Thu 11:17:48 PM 36.5875 -76.3550 21° North 439 505 37,000  Level Washington Center
Thu 11:18:48 PM 36.7131 -76.2889 23° Northeast 439 505 37,000  Level Washington Center
Thu 11:19:49 PM 36.8303 -76.2356 20° North 439 505 37,000  Level Washington Center
Thu 11:20:47 PM 36.9453 -76.1817 21° North 439 505 37,000  Level Washington Center
Thu 11:21:48 PM 37.0625 -76.1228 22° Northeast 439 505 37,000  Level Washington Center
Thu 11:22:48 PM 37.1628 -76.0297 36° Northeast 434 499 37,000  Level Washington Center
Thu 11:23:48 PM 37.2611 -75.9364 37° Northeast 434 499 37,000  Level Washington Center
Thu 11:24:49 PM 37.3575 -75.8453 37° Northeast 434 499 37,000  Level Washington Center
Thu 11:25:47 PM 37.4556 -75.7514 37° Northeast 434 499 37,000  Level Washington Center
Thu 11:26:48 PM 37.5536 -75.6600 36° Northeast 439 505 37,000  Level Washington Center
Thu 11:27:49 PM 37.6539 -75.5656 37° Northeast 439 505 37,000  Level Washington Center
Thu 11:28:48 PM 37.7539 -75.4736 36° Northeast 439 505 37,000  Level Washington Center
Thu 11:29:49 PM 37.8539 -75.3786 37° Northeast 439 505 37,000  Level Washington Center
Thu 11:30:47 PM 37.9536 -75.2836 37° Northeast 439 505 37,000  Level Washington Center
Thu 11:31:48 PM 38.0536 -75.1883 37° Northeast 439 505 37,000  Level Washington Center
Thu 11:32:47 PM 38.1553 -75.0953 36° Northeast 439 505 37,000  Level Washington Center
Thu 11:33:48 PM 38.2550 -74.9942 39° Northeast 444 511 37,000  Level Washington Center
Thu 11:34:47 PM 38.3442 -74.9061 38° Northeast 449 517 37,000  Level Washington Center
Thu 11:35:48 PM 38.4417 -74.8125 37° Northeast 449 517 37,000  Level Washington Center
Thu 11:36:49 PM 38.5408 -74.7131 38° Northeast 443 510 37,000  Level Washington Center
Thu 11:37:47 PM 38.6403 -74.6161 37° Northeast 443 510 37,000  Level Washington Center
Thu 11:38:48 PM 38.7478 -74.5111 37° Northeast 443 510 37,000  Level Washington Center
Thu 11:39:49 PM 38.8469 -74.4161 37° Northeast 448 516 37,000  Level Washington Center
Thu 11:40:47 PM 38.9481 -74.3183 37° Northeast 448 516 37,000  Level Washington Center
Thu 11:41:49 PM 39.0469 -74.2206 38° Northeast 448 516 37,000  Level Washington Center
Thu 11:42:48 PM 39.1439 -74.1222 38° Northeast 448 516 37,000  Level Washington Center
Thu 11:43:49 PM 39.2447 -74.0264 36° Northeast 448 516 37,000  Level Washington Center
Thu 11:44:50 PM 39.3414 -73.9306 37° Northeast 448 516 37,000  Level Washington Center
Thu 11:45:48 PM 39.4400 -73.8286 39° Northeast 448 516 37,000  Level Washington Center
Thu 11:47:28 PM 39.5908 -73.6756 38° Northeast 468 539 37,000  Level Boston Center
Thu 11:48:28 PM 39.6731 -73.5936 37° Northeast 468 539 37,000  Level Boston Center
Thu 11:49:28 PM 39.7908 -73.4714 39° Northeast 463 533 37,000  Level Boston Center
Thu 11:50:28 PM 39.8897 -73.3731 37° Northeast 452 520 37,000  Level Boston Center
Thu 11:51:28 PM 39.9967 -73.2689 37° Northeast 446 513 37,000  Level Boston Center
Thu 11:52:29 PM 40.0953 -73.1669 38° Northeast 446 513 37,000  Level Boston Center
Thu 11:53:28 PM 40.1919 -73.0675 38° Northeast 446 513 37,000  Level Boston Center
Thu 11:54:28 PM 40.2797 -72.9733 39° Northeast 446 513 37,000  Level Boston Center
Thu 11:55:28 PM 40.3781 -72.8678 39° Northeast 446 513 37,000  Level Boston Center
Thu 11:56:28 PM 40.4764 -72.7675 38° Northeast 446 513 37,000  Level Boston Center
Thu 11:57:28 PM 40.5767 -72.6614 39° Northeast 446 513 37,000  Level Boston Center
Thu 11:58:28 PM 40.6747 -72.5606 38° Northeast 446 513 37,000  Level Boston Center
Thu 11:59:28 PM 40.7833 -72.4511 37° Northeast 446 513 37,000 -800 Level Boston Center
Fri 12:00:28 AM 40.8686 -72.3467 43° Northeast 453 521 35,400 -2,150 Descending Boston Center
Fri 12:01:28 AM 40.9644 -72.2283 43° Northeast 458 527 32,700 -2,550 Descending Boston Center
Fri 12:02:28 AM 41.0600 -72.1153 42° Northeast 464 534 30,300 -2,250 Descending Boston Center
Fri 12:03:28 AM 41.1533 -71.9992 43° Northeast 464 534 28,200 -2,050 Descending Boston Center
Fri 12:04:28 AM 41.2444 -71.8881 43° Northeast 451 519 26,200 -2,100 Descending Boston Center
Fri 12:05:28 AM 41.3314 -71.7822 42° Northeast 438 504 24,000 -2,150 Descending Boston Center
Fri 12:06:28 AM 41.4203 -71.6761 42° Northeast 425 489 21,900 -2,050 Descending Boston Center
Fri 12:07:28 AM 41.5031 -71.5725 43° Northeast 420 483 19,900 -2,100 Descending Boston Center
Fri 12:08:28 AM 41.5856 -71.4714 42° Northeast 408 470 17,700 -2,200 Descending Boston Center
Fri 12:09:28 AM 41.6700 -71.3592 45° Northeast 390 449 15,500 -2,050 Descending Boston Center
Fri 12:10:28 AM 41.7400 -71.2717 43° Northeast 385 443 13,600 -2,100 Descending Boston Center
Fri 12:11:28 AM 41.8222 -71.1669 43° Northeast 369 425 11,300 -1,500 Descending Boston Center
Fri 12:12:28 AM 41.8772 -71.0711 52° Northeast 357 411 10,600 -700 Descending Boston Center
Fri 12:13:28 AM 41.9158 -70.9808 60° Northeast 326 375 9,900 -650 Descending Boston Center
Fri 12:14:28 AM 41.9664 -70.8625 60° Northeast 312 359 9,300 -550 Descending Boston Center
Fri 12:15:28 AM 42.0108 -70.7719 57° Northeast 301 346 8,800 -700 Descending Boston Center
Fri 12:16:28 AM 42.0725 -70.7117 36° Northeast 275 316 7,900 -1,150 Descending Boston Center
Fri 12:17:28 AM 42.1492 -70.6758 19° North 275 316 6,500 -1,450 Descending Boston Center
Fri 12:18:28 AM 42.2222 -70.6906 352° North 257 296 5,000 -1,450 Descending Boston Center
Fri 12:19:28 AM 42.2933 -70.7111 348° North 252 290 3,600 -1,050 Descending Boston Center
Fri 12:20:28 AM 42.3628 -70.7400 343° North 257 296 2,900 -350 Descending Boston Center
Fri 12:21:28 AM 42.4300 -70.7778 337° Northwest 257 296 2,900 -200 Level Boston Center
Fri 12:22:28 AM 42.4658 -70.8189 320° Northwest 228 262 2,500 -503 Descending Boston Center
Fri 12:23:51 AM 42.4667 -70.9333 271° West 191 220 1,700 -545 Descending KA90
Fri 12:24:51 AM 42.4333 -70.9667 216° Southwest 134 154 1,200 -550 Descending KA90
Fri 12:25:51 AM 42.4000 -70.9833 200° South 133 153 600 -600 Descending KA90
Fri 12:27:00 AM 42.3630 -71.0064 North  Level Estimated
Fri 12:34:00 AM 42.3630 -71.0064 North  Level Estimated
Fri 12:35:00 AM 42.3630 -71.0064 North  Level Estimated

Login

Don't have an account? Register now (free) for customized features, flight alerts, and more!